• Join FlightAware (Why Join?)
  • Login
  • US Flag 
01:07AM EDT


 

Airport Tracker/Info


-or-


 

Live Flight TrackerFlight Track Log ✈ SKW5631 ✈ 29-Jul-2013 ✈ KSFO - KBUR

Flight Track Log - Related Links

Times and Time Zones

All times are in EDT time to prevent confusion due to time zone crossing. See the SKW5631 flight status page for this flight to view local times or setup timezone preferences in your user account.

Time Position Orientation Groundspeed Altitude Reporting Facility
EDT Latitude Longitude Course Direction KTS MPH feet Rate Location/Type
01:01AM 37.6333 -122.3667 345° North 160 184 900  Level Northern Cal TRACON
01:02AM 37.6833 -122.3833 345° North 215 247 2,700 2,280 Climbing Northern Cal TRACON
01:03AM 37.6667 -122.4333 247° West 229 264 5,300 2,280 Climbing Northern Cal TRACON
01:04AM 37.6000 -122.4333 180° South 266 306 7,300 1,740 Climbing Northern Cal TRACON
01:05AM 37.5561 -122.4269 173° South 264 304 8,500 2,100 Climbing Oakland Center
01:06AM 37.4592 -122.4175 176° South 286 329 11,000 2,100 Climbing Oakland Center
01:07AM 37.3906 -122.3589 146° Southeast 308 354 12,900 1,680 Climbing Oakland Center
01:08AM 37.3244 -122.2844 138° Southeast 318 366 14,500 1,620 Climbing Oakland Center
01:09AM 37.2539 -122.2058 138° Southeast 335 386 16,200 1,440 Climbing Oakland Center
01:10AM 37.1814 -122.1242 138° Southeast 348 400 17,500 1,320 Climbing Oakland Center
01:11AM 37.1064 -122.0406 138° Southeast 358 412 18,900 1,200 Climbing Oakland Center
01:12AM 37.0314 -121.9558 138° Southeast 363 418 20,000 1,080 Climbing Oakland Center
01:13AM 36.9547 -121.8714 139° Southeast 368 423 21,200 1,140 Climbing Oakland Center
01:14AM 36.8747 -121.7847 139° Southeast 378 435 22,400 900 Climbing Oakland Center
01:15AM 36.7922 -121.6925 138° Southeast 381 438 23,100 660 Climbing Oakland Center
01:16AM 36.7086 -121.6022 139° Southeast 396 456 23,800 660 Climbing Oakland Center
01:17AM 36.6253 -121.5092 138° Southeast 402 463 24,500 660 Climbing Oakland Center
01:18AM 36.5572 -121.3936 126° Southeast 409 471 25,200 720 Climbing Oakland Center
01:19AM 36.4764 -121.2525 125° Southeast 418 481 26,000 720 Climbing Oakland Center
01:20AM 36.4075 -121.1356 126° Southeast 421 484 26,700 480 Climbing Oakland Center
01:21AM 36.3133 -121.0489 143° Southeast 419 482 27,000 120 Climbing Oakland Center
01:22AM 36.2189 -120.9553 141° Southeast 434 499 27,000  Level Oakland Center
01:23AM 36.1219 -120.8600 142° Southeast 443 510 27,000  Level Oakland Center
01:24AM 36.0233 -120.7642 142° Southeast 450 518 27,000  Level Oakland Center
01:25AM 35.9236 -120.6656 141° Southeast 456 525 27,000  Level Oakland Center
01:26AM 35.8236 -120.5683 142° Southeast 457 526 27,000  Level Oakland Center
01:27AM 35.7231 -120.4700 142° Southeast 459 528 27,000  Level Oakland Center
01:28AM 35.6225 -120.3725 142° Southeast 458 527 27,000  Level Oakland Center
01:29AM 35.5375 -120.2906 142° Southeast 458 527 27,000  Level Los Angeles Center
01:30AM 35.4164 -120.1733 142° Southeast 460 529 27,000 -120 Level Los Angeles Center
01:31AM 35.3164 -120.0764 142° Southeast 456 525 26,800 -1,140 Descending Los Angeles Center
01:32AM 35.2147 -119.9808 142° Southeast 458 527 24,700 -2,280 Descending Los Angeles Center
01:33AM 35.1153 -119.8886 143° Southeast 450 518 22,200 -2,460 Descending Los Angeles Center
01:34AM 35.0311 -119.7836 134° Southeast 437 503 19,700 -2,460 Descending Los Angeles Center
01:35AM 34.9517 -119.6736 131° Southeast 434 499 17,300 -2,460 Descending Los Angeles Center
01:36AM 34.8778 -119.5769 133° Southeast 399 459 14,700 -2,520 Descending Los Angeles Center
01:37AM 34.8075 -119.4800 131° Southeast 384 442 12,200 -1,860 Descending Los Angeles Center
01:38AM 34.7431 -119.3925 132° Southeast 353 406 11,000 -600 Descending Los Angeles Center
01:39AM 34.6872 -119.3183 132° Southeast 304 350 11,000  Level Los Angeles Center
01:40AM 34.6183 -119.2275 133° Southeast 304 350 11,000  Level Los Angeles Center
01:41AM 34.5661 -119.1622 134° Southeast 309 356 11,000  Level Los Angeles Center
01:42AM 34.5117 -119.0881 132° Southeast 299 344 11,000  Level Los Angeles Center
01:43AM 34.4631 -119.0133 128° Southeast 280 322 11,000 -900 Level Los Angeles Center
01:44AM 34.4081 -118.9261 127° Southeast 271 312 9,200 -1,680 Descending Los Angeles Center
01:45AM 34.3633 -118.8578 128° Southeast 259 298 7,700 -1,500 Descending Los Angeles Center
01:46AM 34.3200 -118.7925 129° Southeast 250 288 6,200 -1,380 Descending Los Angeles Center
01:47AM 34.2769 -118.7294 130° Southeast 244 281 5,000 -1,020 Descending Los Angeles Center
01:49AM 34.2361 -118.6661 128° Southeast 243 280 4,200 -540 Descending Los Angeles Center
01:50AM 34.2019 -118.6089 126° Southeast 226 260 4,000 -300 Descending Los Angeles Center
01:51AM 34.2019 -118.5458 90° East 201 231 3,700 -660 Descending Los Angeles Center
01:52AM 34.1997 -118.4867 93° East 187 215 2,700 -960 Descending Los Angeles Center
01:53AM 34.1997 -118.4333 90° East 169 194 1,800 -720 Descending Los Angeles Center
01:54AM 34.1981 -118.3831 92° East 155 178 1,300 -540 Descending Los Angeles Center
01:55AM 34.1975 -118.3350 91° East 152 175 800 -540 Descending Los Angeles Center